Time;durP1;ratioP1;P1;durP2;ratioP2;P2;SDS_P1;SDS_P2;PMS_P1;PMS_P2;Temp;Humidity;BMP_temperature;BMP_pressure;BME280_temperature;BME280_humidity;BME280_pressure;Samples;Min_cycle;Max_cycle;Signal;HPM_P1;HPM_P2
2023/03/01 00:00:51;;;;;;;;;;;;;;;;;;4249669;27;19968;-34
2023/03/01 00:02:52;;;;;;;;;;;;;;;;;;4249341;27;20423;-34
2023/03/01 00:04:53;;;;;;;;;;;;;;;;;;4248999;27;19915;-34
2023/03/01 00:06:54;;;;;;;;;;;;;;;;;;4242512;27;19970;-34
2023/03/01 00:08:55;;;;;;;;;;;;;;;;;;4242692;27;20000;-34
2023/03/01 00:10:56;;;;;;;;;;;;;;;;;;4249491;27;19962;-34
2023/03/01 00:12:57;;;;;;;;;;;;;;;;;;4214393;28;20057;-34
2023/03/01 00:14:58;;;;;;;;;;;;;;;;;;4238493;27;19915;-34
2023/03/01 00:16:59;;;;;;;;;;;;;;;;;;4249355;27;20404;-34
2023/03/01 00:19:00;;;;;;;;;;;;;;;;;;4247689;27;19919;-34
2023/03/01 00:21:01;;;;;;;;;;;;;;;;;;4234503;27;20294;-34
2023/03/01 00:23:02;;;;;;;;;;;;;;;;;;4248961;27;19921;-34
2023/03/01 00:25:03;;;;;;;;;;;;;;;;;;4249004;27;19926;-34
2023/03/01 00:27:04;;;;;;;;;;;;;;;;;;4238253;27;19916;-34
2023/03/01 00:29:06;;;;;;;;;;;;;;;;;;4239865;27;19919;-36
2023/03/01 00:31:07;;;;;;;;;;;;;;;;;;4249391;27;20044;-35
2023/03/01 00:33:08;;;;;;;;;;;;;;;;;;4249329;27;20150;-34
2023/03/01 00:35:09;;;;;;;;;;;;;;;;;;4238826;27;20401;-34
2023/03/01 00:37:10;;;;;;;;;;;;;;;;;;4232117;28;19915;-34
2023/03/01 00:39:12;;;;;;;;;;;;;;;;;;4216441;28;19920;-34
2023/03/01 00:41:13;;;;;;;;;;;;;;;;;;4237977;27;19957;-34
2023/03/01 00:43:14;;;;;;;;;;;;;;;;;;4247483;27;19936;-34
2023/03/01 00:45:15;;;;;;;;;;;;;;;;;;4243658;27;19951;-34
2023/03/01 00:47:16;;;;;;;;;;;;;;;;;;4230387;28;20502;-34
2023/03/01 00:49:17;;;;;;;;;;;;;;;;;;4240640;27;19967;-34
2023/03/01 00:51:19;;;;;;;;;;;;;;;;;;4223223;28;19919;-34
2023/03/01 00:53:20;;;;;;;;;;;;;;;;;;4224596;28;19915;-34
2023/03/01 00:55:21;;;;;;;;;;;;;;;;;;4234234;27;20244;-34
2023/03/01 00:57:22;;;;;;;;;;;;;;;;;;4230519;28;19915;-34
2023/03/01 00:59:23;;;;;;;;;;;;;;;;;;4223880;28;20240;-35
2023/03/01 01:01:27;;;;;;;;;;;;;;;;;;4241419;27;19919;-34
2023/03/01 01:03:27;;;;;;;;;;;;;;;;;;4248527;27;20290;-34
2023/03/01 01:05:29;;;;;;;;;;;;;;;;;;4240674;27;19915;-34
2023/03/01 01:07:29;;;;;;;;;;;;;;;;;;4241926;27;20469;-34
2023/03/01 01:09:30;;;;;;;;;;;;;;;;;;4241597;27;20379;-34
2023/03/01 01:11:31;;;;;;;;;;;;;;;;;;4236487;27;20433;-35
2023/03/01 01:13:33;;;;;;;;;;;;;;;;;;4239648;27;19915;-34
2023/03/01 01:15:34;;;;;;;;;;;;;;;;;;4248526;27;20323;-35
2023/03/01 01:17:35;;;;;;;;;;;;;;;;;;4248205;27;20290;-33
2023/03/01 01:19:36;;;;;;;;;;;;;;;;;;4236962;27;20014;-34
2023/03/01 01:21:38;;;;;;;;;;;;;;;;;;4238484;27;19924;-37
2023/03/01 01:23:39;;;;;;;;;;;;;;;;;;4234533;27;19915;-35
2023/03/01 01:25:40;;;;;;;;;;;;;;;;;;4248057;27;20016;-34
2023/03/01 01:27:42;;;;;;;;;;;;;;;;;;4229771;28;19969;-34
2023/03/01 01:29:43;;;;;;;;;;;;;;;;;;4236139;27;19915;-35
2023/03/01 01:31:44;;;;;;;;;;;;;;;;;;4222352;28;19965;-34
2023/03/01 01:33:45;;;;;;;;;;;;;;;;;;4240517;27;20430;-34
2023/03/01 01:35:46;;;;;;;;;;;;;;;;;;4246368;27;19919;-34
2023/03/01 01:37:47;;;;;;;;;;;;;;;;;;4242863;27;19919;-34
2023/03/01 01:39:48;;;;;;;;;;;;;;;;;;4240988;27;19922;-35
2023/03/01 01:41:50;;;;;;;;;;;;;;;;;;4247978;27;19919;-34
2023/03/01 01:43:51;;;;;;;;;;;;;;;;;;4241303;27;20419;-36
2023/03/01 01:45:52;;;;;;;;;;;;;;;;;;4231153;28;19919;-35
2023/03/01 01:47:54;;;;;;;;;;;;;;;;;;4229785;28;20368;-34
2023/03/01 01:49:55;;;;;;;;;;;;;;;;;;4232184;27;20032;-34
2023/03/01 01:51:56;;;;;;;;;;;;;;;;;;4241403;27;19924;-34
2023/03/01 01:53:57;;;;;;;;;;;;;;;;;;4241036;27;19915;-34
2023/03/01 01:55:58;;;;;;;;;;;;;;;;;;4242452;27;20375;-34
2023/03/01 01:57:59;;;;;;;;;;;;;;;;;;4246394;27;20279;-34
2023/03/01 02:00:00;;;;;;;;;;;;;;;;;;4247736;27;20313;-34
2023/03/01 02:02:02;;;;;;;;;;;;;;;;;;4241193;27;19915;-34
2023/03/01 02:04:04;;;;;;;;;;;;;;;;;;4228925;28;19922;-34
2023/03/01 02:06:05;;;;;;;;;;;;;;;;;;4231504;27;19973;-34
2023/03/01 02:08:06;;;;;;;;;;;;;;;;;;4241186;27;19920;-34
2023/03/01 02:10:07;;;;;;;;;;;;;;;;;;4241552;27;20029;-34
2023/03/01 02:12:08;;;;;;;;;;;;;;;;;;4230888;28;20259;-34
2023/03/01 02:14:09;;;;;;;;;;;;;;;;;;4244165;27;19960;-34
2023/03/01 02:16:10;;;;;;;;;;;;;;;;;;4246000;27;19976;-34
2023/03/01 02:18:11;;;;;;;;;;;;;;;;;;4222799;28;19945;-34
2023/03/01 02:20:12;;;;;;;;;;;;;;;;;;4244900;27;19915;-34
2023/03/01 02:22:14;;;;;;;;;;;;;;;;;;4208398;28;19916;-34
2023/03/01 02:24:15;;;;;;;;;;;;;;;;;;4239454;27;20294;-34
2023/03/01 02:26:16;;;;;;;;;;;;;;;;;;4242244;27;19927;-34
2023/03/01 02:28:17;;;;;;;;;;;;;;;;;;4238037;27;19927;-37
2023/03/01 02:30:19;;;;;;;;;;;;;;;;;;4238004;27;20362;-33
2023/03/01 02:32:24;;;;;;;;;;;;;;;;;;4238163;27;20370;-35
2023/03/01 02:34:25;;;;;;;;;;;;;;;;;;4228720;28;19935;-34
2023/03/01 02:36:28;;;;;;;;;;;;;;;;;;4241130;28;19962;-35
2023/03/01 02:38:29;;;;;;;;;;;;;;;;;;4247216;27;19923;-34
2023/03/01 02:40:30;;;;;;;;;;;;;;;;;;4239279;27;19916;-34
2023/03/01 02:42:32;;;;;;;;;;;;;;;;;;4229012;28;19920;-34
2023/03/01 02:44:33;;;;;;;;;;;;;;;;;;4240438;27;19915;-35
2023/03/01 02:46:34;;;;;;;;;;;;;;;;;;4244528;28;19915;-34
2023/03/01 02:48:35;;;;;;;;;;;;;;;;;;4243585;28;19915;-34
2023/03/01 02:50:36;;;;;;;;;;;;;;;;;;4239987;28;19926;-34
2023/03/01 02:52:38;;;;;;;;;;;;;;;;;;4239857;28;20005;-35
2023/03/01 02:54:39;;;;;;;;;;;;;;;;;;4220116;28;19916;-33
2023/03/01 02:56:40;;;;;;;;;;;;;;;;;;4242536;28;20435;-34
2023/03/01 02:58:45;;;;;;;;;;;;;;;;;;4244065;28;20313;-34
2023/03/01 03:00:49;;;;;;;;;;;;;;;;;;4222672;28;20436;-34
2023/03/01 03:02:51;;;;;;;;;;;;;;;;;;4222523;28;20473;-34
2023/03/01 03:04:53;;;;;;;;;;;;;;;;;;4241534;28;20331;-34
2023/03/01 03:06:54;;;;;;;;;;;;;;;;;;4238995;28;19955;-34
2023/03/01 03:08:55;;;;;;;;;;;;;;;;;;4217847;28;19952;-34
2023/03/01 03:10:56;;;;;;;;;;;;;;;;;;4212125;28;19982;-34
2023/03/01 03:12:57;;;;;;;;;;;;;;;;;;4222728;28;20380;-34
2023/03/01 03:14:58;;;;;;;;;;;;;;;;;;4229754;28;20013;-34
2023/03/01 03:16:59;;;;;;;;;;;;;;;;;;4215252;28;19963;-34
2023/03/01 03:19:04;;;;;;;;;;;;;;;;;;4228280;28;20039;-34
2023/03/01 03:21:05;;;;;;;;;;;;;;;;;;4237833;28;19924;-34
2023/03/01 03:23:07;;;;;;;;;;;;;;;;;;4237638;28;19916;-34
2023/03/01 03:25:11;;;;;;;;;;;;;;;;;;4232205;28;20050;-34
2023/03/01 03:27:12;;;;;;;;;;;;;;;;;;4240673;28;20326;-34
2023/03/01 03:29:13;;;;;;;;;;;;;;;;;;4230545;28;19920;-34
2023/03/01 03:31:14;;;;;;;;;;;;;;;;;;4229852;28;19916;-35
2023/03/01 03:33:15;;;;;;;;;;;;;;;;;;4243747;28;20302;-34
2023/03/01 03:35:17;;;;;;;;;;;;;;;;;;4235090;28;20139;-34
2023/03/01 03:39:38;;;;;;;;;;;;;;;;;;4240474;28;20381;-35
2023/03/01 03:41:39;;;;;;;;;;;;;;;;;;4236982;28;19920;-35
2023/03/01 03:43:40;;;;;;;;;;;;;;;;;;4236644;28;19916;-33
2023/03/01 03:45:41;;;;;;;;;;;;;;;;;;4244252;28;19915;-34
2023/03/01 03:47:42;;;;;;;;;;;;;;;;;;4237388;28;20432;-34
2023/03/01 03:49:43;;;;;;;;;;;;;;;;;;4245305;28;19923;-34
2023/03/01 03:51:45;;;;;;;;;;;;;;;;;;4246801;28;20340;-35
2023/03/01 03:53:46;;;;;;;;;;;;;;;;;;4240398;28;19927;-34
2023/03/01 03:55:49;;;;;;;;;;;;;;;;;;4236065;28;19927;-35
2023/03/01 03:57:51;;;;;;;;;;;;;;;;;;4247542;27;19960;-34
2023/03/01 03:59:52;;;;;;;;;;;;;;;;;;4249433;27;20329;-34
2023/03/01 04:01:53;;;;;;;;;;;;;;;;;;4249940;27;19959;-34
2023/03/01 04:03:54;;;;;;;;;;;;;;;;;;4246051;27;19984;-35
2023/03/01 04:05:55;;;;;;;;;;;;;;;;;;4246473;27;19915;-34
2023/03/01 04:08:02;;;;;;;;;;;;;;;;;;4249530;27;19923;-34
2023/03/01 04:10:03;;;;;;;;;;;;;;;;;;4234835;27;19915;-34
2023/03/01 04:12:04;;;;;;;;;;;;;;;;;;4242536;27;20430;-34
2023/03/01 04:14:05;;;;;;;;;;;;;;;;;;4249433;27;19960;-34
2023/03/01 04:16:06;;;;;;;;;;;;;;;;;;4242751;27;20381;-34
2023/03/01 04:18:07;;;;;;;;;;;;;;;;;;4242829;27;19919;-35
2023/03/01 04:20:09;;;;;;;;;;;;;;;;;;4246290;27;19923;-34
2023/03/01 04:22:11;;;;;;;;;;;;;;;;;;4239589;27;19916;-34
2023/03/01 04:24:12;;;;;;;;;;;;;;;;;;4230618;28;19924;-35
2023/03/01 04:26:13;;;;;;;;;;;;;;;;;;4237976;27;19991;-34
2023/03/01 04:28:14;;;;;;;;;;;;;;;;;;4242274;27;19915;-34
2023/03/01 04:30:15;;;;;;;;;;;;;;;;;;4232699;27;20433;-34
2023/03/01 04:32:18;;;;;;;;;;;;;;;;;;4240380;27;19923;-34
2023/03/01 04:34:19;;;;;;;;;;;;;;;;;;4230527;28;19915;-34
2023/03/01 04:36:20;;;;;;;;;;;;;;;;;;4248491;27;19919;-34
2023/03/01 04:38:22;;;;;;;;;;;;;;;;;;4242949;27;20028;-34
2023/03/01 04:40:23;;;;;;;;;;;;;;;;;;4230629;28;19915;-34
2023/03/01 04:42:24;;;;;;;;;;;;;;;;;;4242829;27;20343;-34
2023/03/01 04:44:25;;;;;;;;;;;;;;;;;;4242476;27;19915;-35
2023/03/01 04:46:26;;;;;;;;;;;;;;;;;;4248789;27;20290;-34
2023/03/01 04:48:27;;;;;;;;;;;;;;;;;;4243460;27;19959;-34
2023/03/01 04:50:28;;;;;;;;;;;;;;;;;;4240898;27;19968;-34
2023/03/01 04:52:29;;;;;;;;;;;;;;;;;;4242482;27;20013;-34
2023/03/01 04:54:30;;;;;;;;;;;;;;;;;;4241014;27;19923;-34
2023/03/01 04:56:31;;;;;;;;;;;;;;;;;;4239169;27;19920;-33
2023/03/01 04:58:33;;;;;;;;;;;;;;;;;;4246534;27;19915;-34
2023/03/01 05:00:34;;;;;;;;;;;;;;;;;;4242373;27;19920;-34
2023/03/01 05:02:35;;;;;;;;;;;;;;;;;;4248131;27;20291;-35
2023/03/01 05:04:36;;;;;;;;;;;;;;;;;;4241844;27;19964;-34
2023/03/01 05:06:37;;;;;;;;;;;;;;;;;;4248482;27;19962;-37
2023/03/01 05:08:38;;;;;;;;;;;;;;;;;;4231293;28;19973;-34
2023/03/01 05:10:40;;;;;;;;;;;;;;;;;;4237915;27;19915;-34
2023/03/01 05:12:41;;;;;;;;;;;;;;;;;;4241649;27;19923;-34
2023/03/01 05:14:43;;;;;;;;;;;;;;;;;;4248232;27;19960;-34
2023/03/01 05:16:44;;;;;;;;;;;;;;;;;;4241888;27;19915;-34
2023/03/01 05:18:45;;;;;;;;;;;;;;;;;;4248165;27;20324;-34
2023/03/01 05:20:47;;;;;;;;;;;;;;;;;;4222809;28;19919;-35
2023/03/01 05:22:48;;;;;;;;;;;;;;;;;;4236586;27;19915;-34
2023/03/01 05:24:49;;;;;;;;;;;;;;;;;;4223102;28;19916;-34
2023/03/01 05:26:53;;;;;;;;;;;;;;;;;;4231458;27;19972;-33
2023/03/01 05:28:58;;;;;;;;;;;;;;;;;;4234018;27;19968;-34
2023/03/01 05:30:59;;;;;;;;;;;;;;;;;;4238687;27;19915;-34
2023/03/01 05:33:00;;;;;;;;;;;;;;;;;;4239459;27;19915;-34
2023/03/01 05:35:01;;;;;;;;;;;;;;;;;;4247487;27;19919;-34
2023/03/01 05:37:03;;;;;;;;;;;;;;;;;;4248063;27;20267;-34
2023/03/01 05:39:04;;;;;;;;;;;;;;;;;;4244885;27;19949;-34
2023/03/01 05:41:05;;;;;;;;;;;;;;;;;;4244836;27;19968;-34
2023/03/01 05:43:07;;;;;;;;;;;;;;;;;;4241304;27;19966;-33
2023/03/01 05:45:09;;;;;;;;;;;;;;;;;;4248011;27;19926;-35
2023/03/01 05:47:10;;;;;;;;;;;;;;;;;;4241741;27;19937;-33
2023/03/01 05:49:13;;;;;;;;;;;;;;;;;;4245943;27;19993;-36
2023/03/01 05:51:14;;;;;;;;;;;;;;;;;;4241398;27;19961;-33
2023/03/01 05:53:15;;;;;;;;;;;;;;;;;;4247630;27;20446;-36
2023/03/01 05:55:16;;;;;;;;;;;;;;;;;;4239815;27;19984;-36
2023/03/01 05:57:17;;;;;;;;;;;;;;;;;;4242934;27;19920;-38
2023/03/01 05:59:18;;;;;;;;;;;;;;;;;;4247123;27;19924;-37
2023/03/01 06:01:19;;;;;;;;;;;;;;;;;;4243835;27;19919;-36
2023/03/01 06:03:21;;;;;;;;;;;;;;;;;;4227480;28;19916;-35
2023/03/01 06:05:22;;;;;;;;;;;;;;;;;;4220675;28;20364;-37
2023/03/01 06:07:22;;;;;;;;;;;;;;;;;;4231554;27;19949;-35
2023/03/01 06:09:25;;;;;;;;;;;;;;;;;;4237938;27;19915;-33
2023/03/01 06:11:27;;;;;;;;;;;;;;;;;;4232644;27;19924;-35
2023/03/01 06:13:28;;;;;;;;;;;;;;;;;;4244198;27;19940;-37
2023/03/01 06:15:28;;;;;;;;;;;;;;;;;;4240073;27;19974;-34
2023/03/01 06:17:29;;;;;;;;;;;;;;;;;;4237140;27;19915;-38
2023/03/01 06:19:31;;;;;;;;;;;;;;;;;;4244414;27;19923;-38
2023/03/01 06:21:32;;;;;;;;;;;;;;;;;;4245354;27;20445;-37
2023/03/01 06:23:33;;;;;;;;;;;;;;;;;;4227037;28;19927;-39
2023/03/01 06:25:33;;;;;;;;;;;;;;;;;;4244676;27;19919;-37
2023/03/01 06:27:34;;;;;;;;;;;;;;;;;;4245316;27;19919;-37
2023/03/01 06:29:36;;;;;;;;;;;;;;;;;;4226775;28;19927;-37
2023/03/01 06:31:37;;;;;;;;;;;;;;;;;;4224059;28;19920;-40
2023/03/01 06:33:38;;;;;;;;;;;;;;;;;;4234849;28;20202;-40
2023/03/01 06:35:40;;;;;;;;;;;;;;;;;;4244754;27;20038;-37
2023/03/01 06:37:41;;;;;;;;;;;;;;;;;;4232450;28;19965;-36
2023/03/01 06:39:42;;;;;;;;;;;;;;;;;;4243818;27;19955;-38
2023/03/01 06:41:43;;;;;;;;;;;;;;;;;;4240139;28;20371;-34
2023/03/01 06:43:44;;;;;;;;;;;;;;;;;;4236912;28;19926;-36
2023/03/01 06:45:45;;;;;;;;;;;;;;;;;;4233343;28;19977;-36
2023/03/01 06:47:46;;;;;;;;;;;;;;;;;;4241779;28;19931;-36
2023/03/01 06:49:48;;;;;;;;;;;;;;;;;;4231416;28;20328;-37
2023/03/01 06:51:49;;;;;;;;;;;;;;;;;;4245080;28;19968;-33
2023/03/01 06:53:50;;;;;;;;;;;;;;;;;;4234227;28;19919;-39
2023/03/01 06:55:52;;;;;;;;;;;;;;;;;;4228043;28;19920;-36
2023/03/01 06:57:53;;;;;;;;;;;;;;;;;;4215979;28;20288;-38
2023/03/01 06:59:54;;;;;;;;;;;;;;;;;;4229307;28;19927;-41
2023/03/01 07:01:55;;;;;;;;;;;;;;;;;;4237885;28;19924;-36
2023/03/01 07:03:56;;;;;;;;;;;;;;;;;;4223547;28;20014;-40
2023/03/01 07:05:57;;;;;;;;;;;;;;;;;;4231157;28;20387;-36
2023/03/01 07:07:58;;;;;;;;;;;;;;;;;;4236204;28;20046;-34
2023/03/01 07:09:59;;;;;;;;;;;;;;;;;;4225881;28;19977;-36
2023/03/01 07:12:00;;;;;;;;;;;;;;;;;;4227581;28;19923;-37
2023/03/01 07:14:01;;;;;;;;;;;;;;;;;;4228682;28;19974;-36
2023/03/01 07:16:02;;;;;;;;;;;;;;;;;;4229614;28;20054;-36
2023/03/01 07:18:03;;;;;;;;;;;;;;;;;;4234577;28;19919;-37
2023/03/01 07:20:04;;;;;;;;;;;;;;;;;;4229931;28;20002;-36
2023/03/01 07:22:07;;;;;;;;;;;;;;;;;;4230680;28;19980;-33
2023/03/01 07:24:08;;;;;;;;;;;;;;;;;;4228215;28;20031;-38
2023/03/01 07:26:10;;;;;;;;;;;;;;;;;;4230487;28;19924;-39
2023/03/01 07:28:11;;;;;;;;;;;;;;;;;;4231964;28;20291;-36
2023/03/01 07:30:12;;;;;;;;;;;;;;;;;;4232036;28;20023;-36
2023/03/01 07:32:13;;;;;;;;;;;;;;;;;;4237893;27;19927;-35
2023/03/01 07:34:14;;;;;;;;;;;;;;;;;;4235761;27;19924;-39
2023/03/01 07:36:15;;;;;;;;;;;;;;;;;;4239941;27;19988;-34
2023/03/01 07:38:16;;;;;;;;;;;;;;;;;;4233563;27;19976;-35
2023/03/01 07:40:17;;;;;;;;;;;;;;;;;;4238938;27;20066;-36
2023/03/01 07:42:18;;;;;;;;;;;;;;;;;;4236072;27;20037;-35
2023/03/01 07:44:19;;;;;;;;;;;;;;;;;;4218929;28;19974;-36
2023/03/01 07:46:20;;;;;;;;;;;;;;;;;;4232703;27;19920;-36
2023/03/01 07:48:21;;;;;;;;;;;;;;;;;;4233572;27;19939;-36
2023/03/01 07:50:22;;;;;;;;;;;;;;;;;;4233910;27;19969;-33
2023/03/01 07:52:24;;;;;;;;;;;;;;;;;;4237977;27;19924;-37
2023/03/01 07:54:26;;;;;;;;;;;;;;;;;;4233527;27;20441;-39
2023/03/01 07:56:27;;;;;;;;;;;;;;;;;;4235243;27;19937;-37
2023/03/01 07:58:28;;;;;;;;;;;;;;;;;;4222229;28;19963;-40
2023/03/01 08:00:29;;;;;;;;;;;;;;;;;;4233213;27;20352;-37
2023/03/01 08:02:30;;;;;;;;;;;;;;;;;;4235832;27;19955;-36
2023/03/01 08:04:31;;;;;;;;;;;;;;;;;;4218714;28;20326;-38
2023/03/01 08:06:32;;;;;;;;;;;;;;;;;;4233583;27;19919;-38
2023/03/01 08:08:33;;;;;;;;;;;;;;;;;;4226422;27;19968;-39
2023/03/01 08:10:34;;;;;;;;;;;;;;;;;;4230604;27;20299;-37
2023/03/01 08:12:36;;;;;;;;;;;;;;;;;;4233767;27;19923;-36
2023/03/01 08:14:37;;;;;;;;;;;;;;;;;;4231842;27;20333;-39
2023/03/01 08:16:38;;;;;;;;;;;;;;;;;;4234771;27;20363;-34
2023/03/01 08:18:40;;;;;;;;;;;;;;;;;;4231030;27;19920;-34
2023/03/01 08:20:41;;;;;;;;;;;;;;;;;;4232352;27;20412;-36
2023/03/01 08:22:42;;;;;;;;;;;;;;;;;;4226833;27;19920;-38
2023/03/01 08:24:43;;;;;;;;;;;;;;;;;;4236316;27;19919;-37
2023/03/01 08:26:44;;;;;;;;;;;;;;;;;;4232128;27;19960;-35
2023/03/01 08:28:45;;;;;;;;;;;;;;;;;;4230044;27;20307;-38
2023/03/01 08:30:46;;;;;;;;;;;;;;;;;;4222467;27;19924;-40
2023/03/01 08:32:48;;;;;;;;;;;;;;;;;;4232811;27;19926;-38
2023/03/01 08:34:49;;;;;;;;;;;;;;;;;;4234366;27;19915;-37
2023/03/01 08:36:52;;;;;;;;;;;;;;;;;;4231968;27;19923;-40
2023/03/01 08:38:52;;;;;;;;;;;;;;;;;;4235602;27;19919;-41
2023/03/01 08:40:54;;;;;;;;;;;;;;;;;;4230405;27;19973;-40
2023/03/01 08:42:54;;;;;;;;;;;;;;;;;;4235889;27;20465;-37
2023/03/01 08:44:56;;;;;;;;;;;;;;;;;;4232334;27;19976;-37
2023/03/01 08:46:57;;;;;;;;;;;;;;;;;;4233755;27;20459;-39
2023/03/01 08:48:59;;;;;;;;;;;;;;;;;;4234791;27;20309;-37
2023/03/01 08:51:18;;;;;;;;;;;;;;;;;;4231235;27;19934;-36
2023/03/01 08:53:18;;;;;;;;;;;;;;;;;;4231984;27;19920;-35
2023/03/01 08:55:20;;;;;;;;;;;;;;;;;;4223284;27;20572;-38
2023/03/01 08:57:21;;;;;;;;;;;;;;;;;;4226832;27;20014;-38
2023/03/01 08:59:22;;;;;;;;;;;;;;;;;;4211519;28;19924;-37
2023/03/01 09:01:23;;;;;;;;;;;;;;;;;;4226855;27;19953;-35
2023/03/01 09:03:24;;;;;;;;;;;;;;;;;;4231217;27;20362;-37
2023/03/01 09:05:25;;;;;;;;;;;;;;;;;;4230153;27;19923;-38
2023/03/01 09:07:28;;;;;;;;;;;;;;;;;;4228285;27;19934;-38
2023/03/01 09:09:29;;;;;;;;;;;;;;;;;;4229873;27;19923;-39
2023/03/01 09:11:30;;;;;;;;;;;;;;;;;;4226209;27;19923;-36
2023/03/01 09:13:31;;;;;;;;;;;;;;;;;;4229602;27;20668;-35
2023/03/01 09:15:33;;;;;;;;;;;;;;;;;;4225301;27;20367;-40
2023/03/01 09:17:34;;;;;;;;;;;;;;;;;;4227491;27;19923;-41
2023/03/01 09:19:36;;;;;;;;;;;;;;;;;;4227510;27;19968;-38
2023/03/01 09:21:37;;;;;;;;;;;;;;;;;;4226962;27;19924;-38
2023/03/01 09:23:38;;;;;;;;;;;;;;;;;;4228102;27;20327;-39
2023/03/01 09:25:39;;;;;;;;;;;;;;;;;;4224344;27;19928;-40
2023/03/01 09:27:40;;;;;;;;;;;;;;;;;;4227986;27;20423;-39
2023/03/01 09:29:42;;;;;;;;;;;;;;;;;;4228284;27;20402;-38
2023/03/01 09:31:43;;;;;;;;;;;;;;;;;;4227936;27;19919;-38
2023/03/01 09:33:44;;;;;;;;;;;;;;;;;;4227532;27;19924;-40
2023/03/01 09:35:46;;;;;;;;;;;;;;;;;;4227564;27;19920;-39
2023/03/01 09:37:49;;;;;;;;;;;;;;;;;;4227834;27;20708;-43
2023/03/01 09:39:50;;;;;;;;;;;;;;;;;;4233250;27;20960;-38
2023/03/01 09:41:52;;;;;;;;;;;;;;;;;;4226497;27;20313;-39
2023/03/01 09:43:53;;;;;;;;;;;;;;;;;;4230997;27;20000;-37
2023/03/01 09:45:55;;;;;;;;;;;;;;;;;;4228569;27;19923;-37
2023/03/01 09:47:56;;;;;;;;;;;;;;;;;;4227711;27;19971;-36
2023/03/01 09:49:56;;;;;;;;;;;;;;;;;;4223887;27;19923;-38
2023/03/01 09:51:57;;;;;;;;;;;;;;;;;;4214911;27;19927;-35
2023/03/01 09:54:00;;;;;;;;;;;;;;;;;;4228432;27;19930;-35
2023/03/01 09:56:01;;;;;;;;;;;;;;;;;;4229591;27;19993;-38
2023/03/01 09:58:02;;;;;;;;;;;;;;;;;;4224137;27;19928;-37
2023/03/01 10:00:04;;;;;;;;;;;;;;;;;;4227582;27;20629;-42
2023/03/01 10:02:05;;;;;;;;;;;;;;;;;;4224149;27;19924;-41
2023/03/01 10:04:06;;;;;;;;;;;;;;;;;;4228394;27;19974;-35
2023/03/01 10:06:07;;;;;;;;;;;;;;;;;;4222191;27;19919;-36
2023/03/01 10:08:09;;;;;;;;;;;;;;;;;;4227172;27;19923;-38
2023/03/01 10:10:10;;;;;;;;;;;;;;;;;;4234011;27;19953;-38
2023/03/01 10:12:11;;;;;;;;;;;;;;;;;;4226781;27;19953;-39
2023/03/01 10:14:12;;;;;;;;;;;;;;;;;;4226435;27;19919;-38
2023/03/01 10:16:14;;;;;;;;;;;;;;;;;;4226199;27;19919;-40
2023/03/01 10:18:14;;;;;;;;;;;;;;;;;;4224787;27;19988;-39
2023/03/01 10:20:15;;;;;;;;;;;;;;;;;;4224920;27;19915;-40
2023/03/01 10:22:17;;;;;;;;;;;;;;;;;;4226433;27;19927;-40
2023/03/01 10:24:19;;;;;;;;;;;;;;;;;;4225465;27;19926;-37
2023/03/01 10:26:21;;;;;;;;;;;;;;;;;;4227427;27;19949;-41
2023/03/01 10:28:22;;;;;;;;;;;;;;;;;;4227408;27;20706;-42
2023/03/01 10:30:23;;;;;;;;;;;;;;;;;;4227207;27;19919;-37
2023/03/01 10:32:24;;;;;;;;;;;;;;;;;;4227396;27;19930;-40
2023/03/01 10:34:25;;;;;;;;;;;;;;;;;;4227103;27;19919;-40
2023/03/01 10:36:26;;;;;;;;;;;;;;;;;;4226963;27;20474;-39
2023/03/01 10:38:29;;;;;;;;;;;;;;;;;;4225089;27;19932;-41
2023/03/01 10:40:30;;;;;;;;;;;;;;;;;;4221598;28;19934;-38
2023/03/01 10:42:31;;;;;;;;;;;;;;;;;;4224939;28;19965;-40
2023/03/01 10:44:32;;;;;;;;;;;;;;;;;;4229828;28;19976;-38
2023/03/01 10:46:33;;;;;;;;;;;;;;;;;;4225005;28;19919;-43
2023/03/01 10:48:34;;;;;;;;;;;;;;;;;;4227194;28;19927;-40
2023/03/01 10:50:37;;;;;;;;;;;;;;;;;;4225813;28;19952;-41
2023/03/01 10:52:38;;;;;;;;;;;;;;;;;;4226606;28;19919;-36
2023/03/01 10:54:41;;;;;;;;;;;;;;;;;;4222260;28;19923;-39
2023/03/01 10:56:42;;;;;;;;;;;;;;;;;;4222533;28;19973;-43
2023/03/01 10:58:43;;;;;;;;;;;;;;;;;;4225669;28;19923;-41
2023/03/01 11:00:45;;;;;;;;;;;;;;;;;;4224910;28;19920;-40
2023/03/01 11:02:47;;;;;;;;;;;;;;;;;;4227057;28;21052;-41
2023/03/01 11:04:48;;;;;;;;;;;;;;;;;;4229080;28;19927;-40
2023/03/01 11:06:49;;;;;;;;;;;;;;;;;;4232752;27;19920;-40
2023/03/01 11:08:50;;;;;;;;;;;;;;;;;;4234068;27;19948;-41
2023/03/01 11:10:51;;;;;;;;;;;;;;;;;;4229498;27;19973;-40
2023/03/01 11:12:52;;;;;;;;;;;;;;;;;;4226288;27;19920;-38
2023/03/01 11:14:53;;;;;;;;;;;;;;;;;;4231151;27;21002;-42
2023/03/01 11:16:54;;;;;;;;;;;;;;;;;;4232229;27;19923;-40
2023/03/01 11:18:55;;;;;;;;;;;;;;;;;;4217803;28;19961;-42
2023/03/01 11:20:56;;;;;;;;;;;;;;;;;;4216578;28;19923;-40
2023/03/01 11:22:57;;;;;;;;;;;;;;;;;;4227982;27;19930;-42
2023/03/01 11:24:58;;;;;;;;;;;;;;;;;;4229593;27;19996;-38
2023/03/01 11:26:59;;;;;;;;;;;;;;;;;;4225352;27;19985;-42
2023/03/01 11:29:00;;;;;;;;;;;;;;;;;;4228511;27;19919;-41
2023/03/01 11:31:01;;;;;;;;;;;;;;;;;;4230502;27;19928;-40
2023/03/01 11:33:02;;;;;;;;;;;;;;;;;;4232939;27;20378;-39
2023/03/01 11:35:04;;;;;;;;;;;;;;;;;;4228111;27;20020;-41
2023/03/01 11:37:05;;;;;;;;;;;;;;;;;;4231714;27;19976;-40
2023/03/01 11:39:06;;;;;;;;;;;;;;;;;;4234014;27;19919;-42
2023/03/01 11:41:07;;;;;;;;;;;;;;;;;;4228694;27;19940;-40
2023/03/01 11:43:09;;;;;;;;;;;;;;;;;;4231569;27;19979;-39
2023/03/01 11:45:10;;;;;;;;;;;;;;;;;;4229327;27;19979;-39
2023/03/01 11:47:11;;;;;;;;;;;;;;;;;;4222579;27;20217;-41
2023/03/01 11:49:12;;;;;;;;;;;;;;;;;;4230822;27;19923;-39
2023/03/01 11:51:14;;;;;;;;;;;;;;;;;;4226775;27;19992;-39
2023/03/01 11:53:15;;;;;;;;;;;;;;;;;;4229366;27;20470;-43
2023/03/01 11:55:17;;;;;;;;;;;;;;;;;;4219186;27;19915;-41
2023/03/01 11:57:17;;;;;;;;;;;;;;;;;;4220207;27;20376;-41
2023/03/01 11:59:18;;;;;;;;;;;;;;;;;;4226571;27;19972;-42
2023/03/01 12:01:20;;;;;;;;;;;;;;;;;;4225528;27;19923;-39
2023/03/01 12:03:21;;;;;;;;;;;;;;;;;;4226134;27;19961;-40
2023/03/01 12:05:22;;;;;;;;;;;;;;;;;;4229527;27;19923;-40
2023/03/01 12:07:22;;;;;;;;;;;;;;;;;;4227697;27;19962;-39
2023/03/01 12:09:24;;;;;;;;;;;;;;;;;;4229149;27;20344;-41
2023/03/01 12:11:25;;;;;;;;;;;;;;;;;;4227986;27;19969;-40
2023/03/01 12:13:26;;;;;;;;;;;;;;;;;;4226043;27;19923;-41
2023/03/01 12:15:28;;;;;;;;;;;;;;;;;;4226601;27;19977;-40
2023/03/01 12:17:29;;;;;;;;;;;;;;;;;;4226162;27;20468;-42
2023/03/01 12:19:30;;;;;;;;;;;;;;;;;;4229303;27;19939;-41
2023/03/01 12:21:31;;;;;;;;;;;;;;;;;;4230844;27;19919;-41
2023/03/01 12:23:32;;;;;;;;;;;;;;;;;;4228037;27;19924;-39
2023/03/01 12:25:33;;;;;;;;;;;;;;;;;;4225358;27;21267;-42
2023/03/01 12:27:34;;;;;;;;;;;;;;;;;;4221742;27;20055;-42
2023/03/01 12:29:35;;;;;;;;;;;;;;;;;;4224790;27;19924;-43
2023/03/01 12:31:36;;;;;;;;;;;;;;;;;;4227724;27;19923;-41
2023/03/01 12:33:37;;;;;;;;;;;;;;;;;;4211960;28;19923;-42
2023/03/01 12:35:39;;;;;;;;;;;;;;;;;;4224941;27;19920;-44
2023/03/01 12:37:40;;;;;;;;;;;;;;;;;;4205446;28;20389;-41
2023/03/01 12:39:41;;;;;;;;;;;;;;;;;;4227734;27;19919;-39
2023/03/01 12:41:43;;;;;;;;;;;;;;;;;;4225298;27;19934;-41
2023/03/01 12:43:44;;;;;;;;;;;;;;;;;;4222286;27;20790;-42
2023/03/01 12:45:45;;;;;;;;;;;;;;;;;;4229809;27;20018;-42
2023/03/01 12:47:46;;;;;;;;;;;;;;;;;;4226743;27;20587;-44
2023/03/01 12:49:47;;;;;;;;;;;;;;;;;;4223880;27;19976;-42
2023/03/01 12:51:49;;;;;;;;;;;;;;;;;;4225363;27;19919;-40
2023/03/01 12:53:50;;;;;;;;;;;;;;;;;;4229338;27;19919;-40
2023/03/01 12:55:51;;;;;;;;;;;;;;;;;;4227041;27;20379;-41
2023/03/01 12:57:52;;;;;;;;;;;;;;;;;;4229280;27;20031;-37
2023/03/01 12:59:53;;;;;;;;;;;;;;;;;;4227157;27;19927;-38
2023/03/01 13:01:54;;;;;;;;;;;;;;;;;;4226829;27;19973;-40
2023/03/01 13:03:55;;;;;;;;;;;;;;;;;;4227700;27;20298;-39
2023/03/01 13:05:56;;;;;;;;;;;;;;;;;;4224876;27;19920;-36
2023/03/01 13:07:57;;;;;;;;;;;;;;;;;;4222930;27;20030;-40
2023/03/01 13:10:01;;;;;;;;;;;;;;;;;;4225080;27;19923;-43
2023/03/01 13:12:03;;;;;;;;;;;;;;;;;;4223369;27;19949;-41
2023/03/01 13:14:04;;;;;;;;;;;;;;;;;;4224532;27;19963;-43
2023/03/01 13:16:05;;;;;;;;;;;;;;;;;;4223995;27;20043;-41
2023/03/01 13:18:06;;;;;;;;;;;;;;;;;;4230721;27;19919;-40
2023/03/01 13:20:08;;;;;;;;;;;;;;;;;;4221772;27;19927;-43
2023/03/01 13:22:09;;;;;;;;;;;;;;;;;;4212074;27;20029;-42
2023/03/01 13:24:10;;;;;;;;;;;;;;;;;;4229464;27;20355;-35
2023/03/01 13:26:11;;;;;;;;;;;;;;;;;;4232273;27;19926;-41
2023/03/01 13:28:12;;;;;;;;;;;;;;;;;;4233037;27;19920;-42
2023/03/01 13:30:14;;;;;;;;;;;;;;;;;;4226706;27;19919;-46
2023/03/01 13:32:17;;;;;;;;;;;;;;;;;;4227923;27;20369;-40
2023/03/01 13:34:18;;;;;;;;;;;;;;;;;;4224635;27;20495;-46
2023/03/01 13:36:19;;;;;;;;;;;;;;;;;;4223750;27;19929;-41
2023/03/01 13:38:20;;;;;;;;;;;;;;;;;;4196616;28;20771;-38
2023/03/01 13:40:23;;;;;;;;;;;;;;;;;;4229701;27;20332;-35
2023/03/01 13:42:24;;;;;;;;;;;;;;;;;;4226917;27;19964;-36
2023/03/01 13:44:26;;;;;;;;;;;;;;;;;;4217307;28;20394;-42
2023/03/01 13:46:26;;;;;;;;;;;;;;;;;;4232080;27;20285;-38
2023/03/01 13:48:27;;;;;;;;;;;;;;;;;;4231242;27;19964;-41
2023/03/01 13:50:28;;;;;;;;;;;;;;;;;;4226877;27;20022;-37